Time;durP1;ratioP1;P1;durP2;ratioP2;P2;SDS_P1;SDS_P2;PMS_P1;PMS_P2;Temp;Humidity;BMP_temperature;BMP_pressure;BME280_temperature;BME280_humidity;BME280_pressure;Samples;Min_cycle;Max_cycle;Signal;HPM_P1;HPM_P2
2023/11/11 00:00:37;;;;;;;5.53;1.50;;;;;;;9.30;82.62;99058.38;7389889;19;20394;-61
2023/11/11 00:03:05;;;;;;;5.18;1.73;;;;;;;9.29;82.50;99054.13;7388607;19;20884;-61
2023/11/11 00:05:33;;;;;;;4.23;1.10;;;;;;;9.27;82.69;99055.34;7392281;19;20724;-59
2023/11/11 00:08:00;;;;;;;4.27;1.13;;;;;;;9.22;82.66;99060.44;7392349;19;20397;-61
2023/11/11 00:10:26;;;;;;;4.93;1.52;;;;;;;9.18;82.82;99050.28;7390768;19;20361;-61
2023/11/11 00:12:53;;;;;;;3.08;1.42;;;;;;;9.15;82.89;99049.88;7391649;19;20367;-61
2023/11/11 00:15:20;;;;;;;4.03;1.55;;;;;;;9.12;82.89;99043.16;7392100;19;20356;-61
2023/11/11 00:17:47;;;;;;;6.80;1.60;;;;;;;9.13;82.87;99046.59;7391265;19;20363;-60
2023/11/11 00:20:16;;;;;;;4.45;1.23;;;;;;;9.09;82.99;99038.25;7390459;19;20362;-60
2023/11/11 00:22:44;;;;;;;4.80;1.60;;;;;;;9.11;83.22;99032.78;7392147;19;20389;-60
2023/11/11 00:25:13;;;;;;;4.57;1.52;;;;;;;9.11;83.30;99038.06;7391083;19;20411;-60
2023/11/11 00:27:41;;;;;;;3.78;1.30;;;;;;;9.11;83.17;99033.59;7391518;19;20448;-59
2023/11/11 00:30:09;;;;;;;5.25;1.30;;;;;;;9.13;83.43;99025.44;7389104;19;20364;-59
2023/11/11 00:32:36;;;;;;;3.85;1.45;;;;;;;9.12;83.68;99022.00;7390395;19;20913;-61
2023/11/11 00:35:05;;;;;;;6.57;1.73;;;;;;;9.12;83.87;99026.47;7388174;19;20375;-60
2023/11/11 00:37:32;;;;;;;3.92;1.33;;;;;;;9.12;84.19;99031.78;7391819;19;20909;-59
2023/11/11 00:39:59;;;;;;;3.90;1.30;;;;;;;9.11;84.27;99028.28;7390603;19;20345;-60
2023/11/11 00:42:26;;;;;;;4.20;1.50;;;;;;;9.08;84.50;99027.91;7389750;19;20690;-61
2023/11/11 00:44:52;;;;;;;4.93;1.63;;;;;;;9.06;84.66;99032.59;7390394;19;20341;-61
2023/11/11 00:47:19;;;;;;;4.23;1.43;;;;;;;9.05;84.95;99034.41;7393964;19;20421;-60
2023/11/11 00:49:49;;;;;;;4.75;1.55;;;;;;;9.04;84.96;99032.78;7392699;19;20364;-61
2023/11/11 00:52:16;;;;;;;4.43;1.45;;;;;;;9.02;85.02;99034.03;7393294;19;20405;-60
2023/11/11 00:54:43;;;;;;;4.70;1.70;;;;;;;8.98;85.26;99034.41;7394797;19;20350;-61
2023/11/11 00:57:10;;;;;;;4.25;1.70;;;;;;;8.97;85.29;99030.16;7396307;19;20352;-61
2023/11/11 00:59:37;;;;;;;5.60;1.60;;;;;;;8.95;85.38;99032.19;7396344;19;20798;-61
2023/11/11 01:02:04;;;;;;;5.65;1.70;;;;;;;8.95;85.37;99034.84;7393232;19;20373;-60
2023/11/11 01:04:31;;;;;;;6.95;1.83;;;;;;;8.96;85.66;99028.50;7396021;19;20373;-60
2023/11/11 01:06:58;;;;;;;4.63;1.88;;;;;;;8.95;85.56;99029.53;7396100;19;21598;-61
2023/11/11 01:09:25;;;;;;;5.30;1.85;;;;;;;8.95;85.71;99032.19;7398393;19;20363;-61
2023/11/11 01:11:52;;;;;;;5.80;1.70;;;;;;;8.93;85.76;99020.19;7397417;19;20373;-61
2023/11/11 01:14:22;;;;;;;5.10;2.08;;;;;;;8.87;85.76;99021.00;7399242;19;20508;-61
2023/11/11 01:16:49;;;;;;;5.35;1.83;;;;;;;8.81;nan;99025.28;7397521;19;20419;-61
2023/11/11 01:19:16;;;;;;;5.55;2.20;;;;;;;8.75;86.02;99026.09;7395478;19;20427;-60
2023/11/11 01:21:42;;;;;;;5.63;1.90;;;;;;;8.68;86.15;99020.00;7396807;19;20373;-59
2023/11/11 01:24:09;;;;;;;5.33;2.03;;;;;;;8.63;86.52;99025.06;7398022;19;20352;-59
2023/11/11 01:26:36;;;;;;;6.85;2.10;;;;;;;8.57;86.41;99022.22;7395287;19;20348;-60
2023/11/11 01:29:04;;;;;;;5.63;1.90;;;;;;;8.52;86.75;99019.41;7394908;19;20429;-61
2023/11/11 01:31:31;;;;;;;5.78;1.90;;;;;;;8.46;86.87;99022.84;7398075;19;20367;-61
2023/11/11 01:33:58;;;;;;;6.37;2.20;;;;;;;8.41;86.84;99017.34;7393734;19;20356;-61
2023/11/11 01:36:25;;;;;;;5.65;1.70;;;;;;;8.38;86.85;99023.81;7397195;19;20376;-61
2023/11/11 01:38:52;;;;;;;7.95;2.10;;;;;;;8.34;87.18;99025.22;7396319;19;20364;-60
2023/11/11 01:41:19;;;;;;;6.57;1.98;;;;;;;8.32;87.37;99026.44;7397249;19;20340;-61
2023/11/11 01:43:46;;;;;;;6.20;2.20;;;;;;;8.29;87.14;99021.59;7396302;19;20371;-60
2023/11/11 01:46:13;;;;;;;4.78;2.13;;;;;;;8.26;87.21;99019.31;7397292;19;20396;-61
2023/11/11 01:48:41;;;;;;;7.78;2.20;;;;;;;8.24;87.36;99010.78;7394579;19;20361;-59
2023/11/11 01:51:08;;;;;;;5.75;1.98;;;;;;;8.20;87.28;99014.84;7394050;19;20376;-60
2023/11/11 01:53:35;;;;;;;6.32;2.10;;;;;;;8.16;87.29;99009.97;7397184;19;20360;-61
2023/11/11 01:56:04;;;;;;;6.70;2.37;;;;;;;8.14;87.46;99019.94;7395823;19;20375;-59
2023/11/11 01:58:33;;;;;;;5.80;2.05;;;;;;;8.11;87.57;99017.66;7393881;19;20368;-61
2023/11/11 02:00:59;;;;;;;5.85;2.05;;;;;;;8.06;87.33;99006.91;7395110;19;20854;-61
2023/11/11 02:03:26;;;;;;;6.07;2.05;;;;;;;8.02;87.80;99003.03;7392270;19;20381;-58
2023/11/11 02:05:53;;;;;;;5.40;2.60;;;;;;;7.95;87.57;99013.59;7394775;19;20368;-61
2023/11/11 02:08:24;;;;;;;5.72;2.30;;;;;;;7.89;87.63;99009.09;7395789;19;20432;-60
2023/11/11 02:10:51;;;;;;;8.05;2.60;;;;;;;7.84;88.11;99008.88;7382747;19;20460;-61
2023/11/11 02:13:18;;;;;;;7.57;2.90;;;;;;;7.80;88.11;99009.47;7392983;19;20667;-61
2023/11/11 02:15:46;;;;;;;5.32;2.60;;;;;;;7.77;88.47;99010.69;7390851;19;20381;-61
2023/11/11 02:18:12;;;;;;;5.77;2.50;;;;;;;7.75;88.39;99010.06;7394675;19;20397;-61
2023/11/11 02:20:41;;;;;;;7.35;2.50;;;;;;;7.71;88.67;99007.03;7395299;19;20372;-61
2023/11/11 02:23:07;;;;;;;5.97;2.38;;;;;;;7.69;88.66;99003.75;7396387;19;20358;-60
2023/11/11 02:25:35;;;;;;;6.50;2.78;;;;;;;7.64;88.82;99011.44;7393642;19;20360;-61
2023/11/11 02:28:02;;;;;;;9.00;2.92;;;;;;;7.61;88.91;99003.94;7388378;19;20356;-61
2023/11/11 02:30:29;;;;;;;6.63;2.85;;;;;;;7.59;89.04;98997.19;7387975;19;20373;-60
2023/11/11 02:32:55;;;;;;;6.43;2.85;;;;;;;7.58;89.05;98998.22;7391474;19;20886;-60
2023/11/11 02:35:23;;;;;;;5.50;2.38;;;;;;;7.57;89.45;99009.81;7394764;19;20789;-61
2023/11/11 02:37:50;;;;;;;7.45;2.47;;;;;;;7.57;89.42;99007.97;7393785;19;20875;-60
2023/11/11 02:40:16;;;;;;;6.38;2.50;;;;;;;7.57;89.53;99010.63;7394036;19;20344;-61
2023/11/11 02:42:43;;;;;;;6.95;2.90;;;;;;;7.59;89.80;99011.22;7393696;19;20884;-61
2023/11/11 02:45:11;;;;;;;7.57;3.10;;;;;;;7.62;90.06;99010.81;7388631;19;20361;-61
2023/11/11 02:47:38;;;;;;;6.70;3.17;;;;;;;7.64;90.22;99003.53;7389826;19;20877;-61
2023/11/11 02:50:06;;;;;;;6.07;2.70;;;;;;;7.66;90.11;99008.63;7391049;19;20380;-61
2023/11/11 02:52:33;;;;;;;6.22;2.58;;;;;;;7.69;90.25;99009.03;7394306;19;20986;-61
2023/11/11 02:55:00;;;;;;;7.80;2.83;;;;;;;7.71;90.22;99012.31;7395348;19;20350;-60
2023/11/11 02:57:28;;;;;;;7.57;2.60;;;;;;;7.74;90.54;99009.25;7392472;19;20336;-60
2023/11/11 02:59:55;;;;;;;8.85;2.70;;;;;;;7.78;90.71;99014.13;7393534;19;20345;-61
2023/11/11 03:02:24;;;;;;;6.97;2.28;;;;;;;7.81;90.52;99001.34;7391328;19;20566;-61
2023/11/11 03:04:51;;;;;;;6.82;2.60;;;;;;;7.86;90.50;99008.66;7392649;19;20826;-61
2023/11/11 03:07:18;;;;;;;7.70;2.47;;;;;;;7.87;90.37;99002.38;7394470;19;20360;-62
2023/11/11 03:09:45;;;;;;;7.07;2.45;;;;;;;7.89;90.44;99005.66;7389722;19;20910;-62
2023/11/11 03:12:12;;;;;;;8.93;2.47;;;;;;;7.91;90.59;99007.06;7393971;19;20352;-61
2023/11/11 03:14:40;;;;;;;6.78;2.20;;;;;;;7.94;90.74;99005.84;7391717;19;20363;-61
2023/11/11 03:17:08;;;;;;;6.93;2.72;;;;;;;7.97;90.87;99003.63;7392872;19;20349;-61
2023/11/11 03:19:35;;;;;;;6.87;2.83;;;;;;;8.00;90.79;99007.69;7391453;19;20421;-62
2023/11/11 03:22:02;;;;;;;6.72;2.90;;;;;;;8.02;91.23;99008.31;7393650;19;20356;-62
2023/11/11 03:24:29;;;;;;;6.68;2.63;;;;;;;8.03;90.93;99004.66;7391228;19;20435;-62
2023/11/11 03:26:56;;;;;;;6.82;2.53;;;;;;;8.06;91.10;99008.75;7392191;19;20374;-63
2023/11/11 03:29:23;;;;;;;7.10;2.63;;;;;;;8.07;90.96;99005.88;7392349;19;20344;-63
2023/11/11 03:31:49;;;;;;;7.30;2.60;;;;;;;8.10;91.17;99010.78;7393383;19;20870;-62
2023/11/11 03:34:16;;;;;;;7.85;2.70;;;;;;;8.12;91.27;99002.66;7393355;19;20341;-62
2023/11/11 03:36:43;;;;;;;6.95;2.40;;;;;;;8.12;91.39;99000.81;7391378;19;20479;-63
2023/11/11 03:39:10;;;;;;;6.60;2.40;;;;;;;8.15;91.18;99008.34;7392506;19;20391;-63
2023/11/11 03:41:37;;;;;;;6.22;2.38;;;;;;;8.15;91.23;99008.34;7389475;19;20691;-62
2023/11/11 03:44:04;;;;;;;6.60;2.40;;;;;;;8.15;91.14;99008.34;7392327;19;20650;-62
2023/11/11 03:46:30;;;;;;;9.27;2.78;;;;;;;8.15;91.30;99010.97;7392202;19;20661;-62
2023/11/11 03:48:57;;;;;;;5.00;2.40;;;;;;;8.16;91.53;99004.69;7389077;19;20882;-62
2023/11/11 03:51:24;;;;;;;6.70;2.50;;;;;;;8.19;91.83;99014.03;7390743;19;20358;-63
2023/11/11 03:53:51;;;;;;;6.95;2.90;;;;;;;8.21;91.87;99011.19;7391016;19;20856;-63
2023/11/11 03:56:19;;;;;;;6.77;2.87;;;;;;;8.22;91.96;99010.97;7391678;19;20384;-63
2023/11/11 03:58:47;;;;;;;6.85;2.38;;;;;;;8.23;91.66;99014.47;7392888;19;20411;-63
2023/11/11 04:01:14;;;;;;;5.97;2.28;;;;;;;8.22;91.46;99018.91;7391404;19;20379;-63
2023/11/11 04:03:43;;;;;;;6.20;2.40;;;;;;;8.21;91.68;99021.78;7390305;19;20381;-63
2023/11/11 04:06:12;;;;;;;7.22;2.83;;;;;;;8.19;91.67;99029.88;7391225;19;20375;-62
2023/11/11 04:08:39;;;;;;;7.22;2.70;;;;;;;8.15;91.67;99023.38;7392986;19;20357;-63
2023/11/11 04:11:07;;;;;;;6.63;2.50;;;;;;;8.17;92.28;99027.44;7389529;19;20368;-63
2023/11/11 04:13:37;;;;;;;6.28;2.60;;;;;;;8.20;92.58;99035.97;7392208;19;20351;-63
2023/11/11 04:16:06;;;;;;;6.18;2.88;;;;;;;8.23;92.68;99030.31;7391163;19;20378;-63
2023/11/11 04:18:34;;;;;;;6.28;2.70;;;;;;;8.24;92.52;99024.00;7390764;19;20416;-63
2023/11/11 04:21:01;;;;;;;6.97;2.63;;;;;;;8.25;92.40;99033.56;7382576;19;20400;-63
2023/11/11 04:23:28;;;;;;;7.13;2.58;;;;;;;8.25;92.78;99029.09;7391158;19;20408;-63
2023/11/11 04:25:56;;;;;;;6.32;2.78;;;;;;;8.27;92.88;99034.19;7389713;19;20458;-63
2023/11/11 04:28:24;;;;;;;6.67;2.80;;;;;;;8.28;93.01;99035.78;7392175;19;20360;-62
2023/11/11 04:30:51;;;;;;;6.55;3.00;;;;;;;8.27;92.65;99042.09;7387982;19;20726;-63
2023/11/11 04:33:22;;;;;;;9.30;3.08;;;;;;;8.26;92.47;99038.63;7390383;19;20362;-63
2023/11/11 04:35:51;;;;;;;7.22;3.00;;;;;;;8.26;92.89;99051.03;7389574;19;20935;-63
2023/11/11 04:38:19;;;;;;;6.50;2.73;;;;;;;8.25;92.99;99059.97;7377085;19;20376;-63
2023/11/11 04:40:49;;;;;;;5.47;2.80;;;;;;;8.22;92.95;99055.88;7391145;19;20379;-63
2023/11/11 04:43:17;;;;;;;6.18;2.70;;;;;;;8.19;93.17;99066.06;7390393;19;20444;-63
2023/11/11 04:45:44;;;;;;;6.47;2.58;;;;;;;8.07;94.13;99069.25;7390378;19;20351;-64
2023/11/11 04:48:11;;;;;;;6.90;2.70;;;;;;;7.99;94.59;99076.53;7390346;19;20364;-66
2023/11/11 04:50:38;;;;;;;6.65;2.80;;;;;;;7.92;95.08;99081.81;7388407;19;20379;-67
2023/11/11 04:53:07;;;;;;;6.40;2.58;;;;;;;7.84;95.54;99069.59;7388495;19;20476;-67
2023/11/11 04:55:34;;;;;;;6.88;2.92;;;;;;;7.77;96.21;99079.31;7388243;19;20344;-68
2023/11/11 04:58:00;;;;;;;6.32;2.60;;;;;;;7.70;96.50;99081.91;7391398;19;20347;-67
2023/11/11 05:00:29;;;;;;;4.22;1.90;;;;;;;7.64;95.98;99090.63;7388963;19;20373;-67
2023/11/11 05:02:56;;;;;;;2.83;1.45;;;;;;;7.55;95.35;99092.59;7390050;19;20732;-67
2023/11/11 05:05:23;;;;;;;3.20;1.40;;;;;;;7.46;95.68;99092.94;7388325;19;20364;-67
2023/11/11 05:07:50;;;;;;;3.40;1.70;;;;;;;7.34;96.17;99096.13;7389060;19;20348;-67
2023/11/11 05:10:17;;;;;;;4.03;2.10;;;;;;;7.25;97.03;99092.03;7388076;19;20442;-68
2023/11/11 05:12:47;;;;;;;4.10;2.10;;;;;;;7.19;97.66;99094.63;7386967;19;20455;-67
2023/11/11 05:15:14;;;;;;;3.60;2.10;;;;;;;7.11;97.92;99111.38;7387259;19;20360;-68
2023/11/11 05:17:43;;;;;;;3.63;2.20;;;;;;;7.06;98.69;99108.53;7388586;19;20428;-68
2023/11/11 05:20:11;;;;;;;3.53;2.38;;;;;;;7.03;98.92;99111.53;7387463;19;20880;-68
2023/11/11 05:22:38;;;;;;;3.55;2.10;;;;;;;6.98;99.19;99111.28;7387506;19;20348;-68
2023/11/11 05:25:05;;;;;;;4.30;2.50;;;;;;;6.93;99.55;99115.31;7388764;19;20388;-69
2023/11/11 05:27:32;;;;;;;3.08;2.08;;;;;;;6.86;99.67;99124.16;7389342;19;20340;-69
2023/11/11 05:29:59;;;;;;;3.28;1.50;;;;;;;6.78;98.76;99127.75;7388892;19;20707;-69
2023/11/11 05:32:27;;;;;;;1.83;0.90;;;;;;;6.67;97.08;99141.41;7388634;19;20365;-69
2023/11/11 05:34:57;;;;;;;1.98;1.00;;;;;;;6.64;97.30;99141.78;7395583;19;20381;-68
2023/11/11 05:37:25;;;;;;;2.97;1.10;;;;;;;6.59;97.61;99138.88;7392156;19;20391;-68
2023/11/11 05:39:51;;;;;;;2.50;1.20;;;;;;;6.58;97.96;99132.00;7395138;19;20689;-67
2023/11/11 05:42:18;;;;;;;2.45;1.20;;;;;;;6.55;98.18;99132.41;7384011;19;20344;-68
2023/11/11 05:44:45;;;;;;;3.45;1.30;;;;;;;6.56;98.59;99139.28;7388506;19;20348;-68
2023/11/11 05:47:13;;;;;;;3.13;1.35;;;;;;;6.56;98.69;99131.38;7387169;19;20348;-68
2023/11/11 05:49:44;;;;;;;7.07;2.00;;;;;;;6.57;98.48;99135.63;7388181;19;20364;-68
2023/11/11 05:52:12;;;;;;;7.63;2.00;;;;;;;6.58;98.56;99142.53;7385217;19;20368;-67
2023/11/11 05:54:39;;;;;;;6.53;2.40;;;;;;;6.62;98.76;99143.81;7391745;19;20364;-67
2023/11/11 05:57:06;;;;;;;4.30;1.90;;;;;;;6.62;98.77;99146.44;7396491;19;20442;-66
2023/11/11 05:59:33;;;;;;;3.45;1.60;;;;;;;6.61;98.64;99137.72;7395406;19;20367;-66
2023/11/11 06:02:04;;;;;;;3.58;1.85;;;;;;;6.64;98.93;99147.06;7396421;19;20353;-66
2023/11/11 06:04:35;;;;;;;2.42;1.30;;;;;;;6.65;99.02;99153.94;7396653;19;20411;-66
2023/11/11 06:07:02;;;;;;;3.13;1.60;;;;;;;6.65;99.12;99154.78;7396627;19;20406;-65
2023/11/11 06:09:30;;;;;;;2.97;1.40;;;;;;;6.67;99.15;99157.22;7395514;19;20895;-65
2023/11/11 06:11:57;;;;;;;1.98;1.20;;;;;;;6.67;98.98;99157.22;7396387;19;20408;-66
2023/11/11 06:14:24;;;;;;;2.00;1.10;;;;;;;6.67;98.56;99162.50;7398118;19;20347;-65
2023/11/11 06:16:52;;;;;;;3.03;1.03;;;;;;;6.68;98.68;99164.13;7394744;19;20379;-65
2023/11/11 06:19:19;;;;;;;2.53;1.05;;;;;;;6.68;98.71;99170.22;7397422;19;20416;-65
2023/11/11 06:21:47;;;;;;;1.92;1.00;;;;;;;6.67;98.74;99171.22;7395592;19;20372;-65
2023/11/11 06:24:15;;;;;;;2.75;1.10;;;;;;;6.66;98.76;99187.22;7396383;19;20393;-65
2023/11/11 06:26:42;;;;;;;3.47;1.20;;;;;;;6.68;98.86;99186.03;7396735;19;20678;-65
2023/11/11 06:29:09;;;;;;;4.93;1.35;;;;;;;6.68;98.87;99185.22;7396388;19;20865;-65
2023/11/11 06:31:36;;;;;;;3.28;1.38;;;;;;;6.70;99.05;99185.84;7394176;19;20383;-66
2023/11/11 06:34:04;;;;;;;3.20;1.30;;;;;;;6.72;99.10;99186.47;7395801;19;20336;-66
2023/11/11 06:36:31;;;;;;;2.33;1.20;;;;;;;6.72;99.57;99192.56;7395035;19;20913;-66
2023/11/11 06:38:58;;;;;;;1.80;1.00;;;;;;;6.72;99.32;99191.75;7390984;19;20356;-66
2023/11/11 06:41:25;;;;;;;3.22;1.38;;;;;;;6.74;99.36;99206.38;7394700;19;20408;-66
2023/11/11 06:43:52;;;;;;;2.80;1.20;;;;;;;6.75;99.63;99207.16;7392682;19;20361;-66
2023/11/11 06:46:22;;;;;;;2.58;1.35;;;;;;;6.75;99.82;99215.09;7395287;19;20340;-66
2023/11/11 06:48:49;;;;;;;3.33;1.50;;;;;;;6.76;99.86;99214.09;7396290;19;20332;-66
2023/11/11 06:51:16;;;;;;;3.67;1.60;;;;;;;6.76;100.00;99224.63;7393586;19;20375;-67
2023/11/11 06:53:43;;;;;;;3.47;1.42;;;;;;;6.77;100.00;99226.25;7394405;19;20368;-66
2023/11/11 06:56:14;;;;;;;2.55;1.50;;;;;;;6.78;100.00;99230.53;7394314;19;20722;-66
2023/11/11 06:58:41;;;;;;;3.00;1.70;;;;;;;6.77;100.00;99234.16;7394521;19;20440;-64
2023/11/11 07:01:08;;;;;;;3.20;1.80;;;;;;;6.77;100.00;99231.53;7392336;19;20450;-64
2023/11/11 07:03:35;;;;;;;2.85;1.70;;;;;;;6.78;100.00;99233.16;7393461;19;20388;-65
2023/11/11 07:06:03;;;;;;;2.90;1.70;;;;;;;6.79;100.00;99237.44;7393277;19;20759;-64
2023/11/11 07:08:30;;;;;;;3.42;2.13;;;;;;;6.82;100.00;99244.97;7389670;19;20427;-64
2023/11/11 07:10:57;;;;;;;3.67;2.00;;;;;;;6.83;100.00;99243.97;7394579;19;20360;-64
2023/11/11 07:13:24;;;;;;;4.80;2.75;;;;;;;6.83;100.00;99254.50;7395756;19;20690;-65
2023/11/11 07:15:50;;;;;;;4.65;2.75;;;;;;;6.83;100.00;99251.88;7391458;19;20900;-64
2023/11/11 07:18:17;;;;;;;6.10;3.85;;;;;;;6.84;100.00;99250.88;7395240;19;20397;-65
2023/11/11 07:20:44;;;;;;;5.67;3.63;;;;;;;6.84;100.00;99253.53;7390845;19;20352;-65
2023/11/11 07:23:11;;;;;;;5.47;4.00;;;;;;;6.87;100.00;99263.69;7393970;19;20356;-65
2023/11/11 07:25:39;;;;;;;5.85;4.00;;;;;;;6.88;100.00;99265.28;7394010;19;20435;-65
2023/11/11 07:28:06;;;;;;;6.73;4.50;;;;;;;6.88;100.00;99272.41;7395024;19;20408;-65
2023/11/11 07:30:38;;;;;;;6.47;4.20;;;;;;;6.88;100.00;99261.84;7394032;19;20355;-66
2023/11/11 07:33:05;;;;;;;5.68;4.10;;;;;;;6.89;100.00;99266.13;7393656;19;20654;-66
2023/11/11 07:35:32;;;;;;;5.95;4.47;;;;;;;6.90;100.00;99270.38;7392449;19;20348;-66
2023/11/11 07:38:00;;;;;;;6.22;4.40;;;;;;;6.91;100.00;99279.94;7393382;19;20361;-67
2023/11/11 07:40:27;;;;;;;8.18;5.20;;;;;;;6.91;100.00;99272.84;7391857;19;20381;-67
2023/11/11 07:42:55;;;;;;;7.60;5.50;;;;;;;6.94;100.00;99282.19;7395347;19;20681;-66
2023/11/11 07:45:24;;;;;;;9.70;6.88;;;;;;;6.96;100.00;99282.81;7393486;19;20340;-66
2023/11/11 07:47:52;;;;;;;8.50;7.22;;;;;;;7.01;100.00;99295.44;7390683;19;20860;-64
2023/11/11 07:50:20;;;;;;;9.93;8.13;;;;;;;7.06;100.00;99287.81;7391341;19;20360;-64
2023/11/11 07:52:48;;;;;;;10.60;8.85;;;;;;;7.08;100.00;99293.72;7388193;19;20661;-64
2023/11/11 07:55:15;;;;;;;11.25;9.15;;;;;;;7.14;100.00;99296.41;7391814;19;20419;-64
2023/11/11 07:57:42;;;;;;;11.88;10.05;;;;;;;7.18;100.00;99302.13;7391888;19;20375;-63
2023/11/11 08:00:16;;;;;;;12.35;10.93;;;;;;;7.21;100.00;99309.69;7393362;19;20356;-64
2023/11/11 08:02:49;;;;;;;13.33;11.27;;;;;;;7.26;100.00;99312.56;7390249;19;20874;-63
2023/11/11 08:05:16;;;;;;;12.48;10.50;;;;;;;7.31;100.00;99317.25;7393542;19;20392;-63
2023/11/11 08:07:43;;;;;;;11.40;9.67;;;;;;;7.32;100.00;99309.16;7392783;19;20715;-63
2023/11/11 08:10:10;;;;;;;10.73;9.63;;;;;;;7.33;100.00;99317.88;7390398;19;20368;-63
2023/11/11 08:12:38;;;;;;;10.30;9.30;;;;;;;7.36;100.00;99312.25;7391293;19;20368;-64
2023/11/11 08:15:06;;;;;;;11.95;8.90;;;;;;;7.43;100.00;99320.22;7391430;19;20365;-64
2023/11/11 08:17:33;;;;;;;8.65;7.78;;;;;;;7.42;100.00;99318.63;7391508;19;20361;-64
2023/11/11 08:20:01;;;;;;;9.90;8.23;;;;;;;7.46;99.92;99314.56;7391201;19;20364;-64
2023/11/11 08:22:27;;;;;;;7.82;6.85;;;;;;;7.44;99.46;99327.97;7390202;19;20377;-63
2023/11/11 08:24:54;;;;;;;8.38;7.40;;;;;;;7.51;99.66;99323.56;7390919;19;20856;-64
2023/11/11 08:27:21;;;;;;;8.00;6.67;;;;;;;7.47;99.18;99324.13;7390561;19;20363;-64
2023/11/11 08:29:49;;;;;;;7.50;5.97;;;;;;;7.48;98.53;99331.88;7392467;19;20386;-64
2023/11/11 08:32:17;;;;;;;8.00;5.28;;;;;;;7.51;97.67;99334.13;7391571;19;20372;-64
2023/11/11 08:34:44;;;;;;;7.00;5.25;;;;;;;7.54;97.88;99343.47;7392600;19;20880;-64
2023/11/11 08:37:11;;;;;;;6.50;5.10;;;;;;;7.53;97.32;99336.56;7390675;19;20372;-64
2023/11/11 08:39:38;;;;;;;7.18;4.82;;;;;;;7.60;97.41;99337.44;7393703;19;20340;-64
2023/11/11 08:42:05;;;;;;;7.43;4.70;;;;;;;7.63;97.08;99346.78;7392519;19;20355;-64
2023/11/11 08:44:32;;;;;;;5.60;4.50;;;;;;;7.68;96.94;99347.88;7390835;19;21294;-65
2023/11/11 08:46:59;;;;;;;6.70;4.40;;;;;;;7.75;96.76;99350.56;7390291;19;20797;-64
2023/11/11 08:49:26;;;;;;;5.35;4.22;;;;;;;7.76;96.28;99360.94;7392959;19;20373;-65
2023/11/11 08:51:53;;;;;;;5.35;3.80;;;;;;;7.78;95.20;99349.38;7389071;19;20373;-64
2023/11/11 08:54:19;;;;;;;4.93;3.63;;;;;;;7.81;94.81;99354.28;7389463;19;20340;-64
2023/11/11 08:56:46;;;;;;;4.67;3.13;;;;;;;7.84;94.23;99356.53;7389579;19;20783;-64
2023/11/11 08:59:14;;;;;;;4.97;3.10;;;;;;;7.88;93.97;99357.78;7389739;19;20749;-64
2023/11/11 09:01:41;;;;;;;4.75;3.00;;;;;;;7.91;93.80;99360.88;7390169;19;20395;-64
2023/11/11 09:04:08;;;;;;;5.27;3.17;;;;;;;7.98;94.68;99355.66;7387467;19;20385;-65
2023/11/11 09:06:36;;;;;;;4.10;2.88;;;;;;;7.95;93.25;99371.88;7391175;19;20683;-64
2023/11/11 09:09:03;;;;;;;5.15;2.60;;;;;;;8.01;93.47;99376.41;7397411;19;20456;-64
2023/11/11 09:11:37;;;;;;;3.22;2.20;;;;;;;8.03;92.79;99371.72;7398398;19;20449;-64
2023/11/11 09:14:05;;;;;;;3.38;2.08;;;;;;;8.07;92.80;99375.63;7398058;19;20424;-64
2023/11/11 09:16:33;;;;;;;3.50;2.00;;;;;;;8.04;91.90;99383.13;7399381;19;20486;-64
2023/11/11 09:19:04;;;;;;;2.88;1.95;;;;;;;8.06;91.54;99379.28;7399502;19;20353;-64
2023/11/11 09:21:31;;;;;;;3.72;1.77;;;;;;;8.14;91.82;99380.97;7397556;19;20991;-63
2023/11/11 09:23:58;;;;;;;3.70;1.90;;;;;;;8.15;91.58;99377.31;7395780;19;20365;-64
2023/11/11 09:26:25;;;;;;;2.85;1.63;;;;;;;8.16;91.59;99389.53;7399952;19;20343;-63
2023/11/11 09:28:53;;;;;;;4.38;1.80;;;;;;;8.14;91.79;99395.00;7395957;19;20458;-64
2023/11/11 09:31:20;;;;;;;3.67;1.70;;;;;;;8.06;91.58;99403.06;7397605;19;20463;-64
2023/11/11 09:33:48;;;;;;;3.15;1.55;;;;;;;7.94;91.23;99400.09;7398485;19;20372;-63
2023/11/11 09:36:17;;;;;;;3.95;1.70;;;;;;;7.94;91.92;99396.63;7393204;19;20424;-64
2023/11/11 09:38:46;;;;;;;4.28;1.70;;;;;;;7.93;92.91;99389.75;7390682;19;20377;-63
2023/11/11 09:41:13;;;;;;;4.40;2.05;;;;;;;7.97;93.51;99388.34;7395825;19;20397;-63
2023/11/11 09:47:26;;;;;;;4.40;1.98;;;;;;;8.09;93.71;99400.00;7387725;19;20343;-63
2023/11/11 09:49:54;;;;;;;2.88;1.75;;;;;;;8.16;93.75;99406.19;7394202;19;20340;-64
2023/11/11 09:52:23;;;;;;;4.15;1.90;;;;;;;8.16;92.84;99411.47;7386584;19;20448;-64
2023/11/11 09:54:51;;;;;;;4.03;2.10;;;;;;;8.22;92.88;99403.78;7393204;19;20443;-64
2023/11/11 09:57:20;;;;;;;4.40;2.10;;;;;;;8.23;91.91;99406.22;7394916;19;20939;-64
2023/11/11 09:59:50;;;;;;;4.03;1.80;;;;;;;8.16;90.83;99403.53;7385649;19;20689;-64
2023/11/11 10:02:17;;;;;;;3.70;2.00;;;;;;;8.13;90.85;99414.47;7390601;19;20356;-63
2023/11/11 10:04:44;;;;;;;3.92;1.70;;;;;;;8.15;90.44;99409.81;7392532;19;20420;-63
2023/11/11 10:07:12;;;;;;;3.55;2.17;;;;;;;8.14;90.49;99412.66;7394925;19;20876;-64
2023/11/11 10:09:40;;;;;;;5.05;1.70;;;;;;;8.11;90.65;99415.69;7395737;19;20349;-64
2023/11/11 10:12:08;;;;;;;3.77;2.10;;;;;;;8.16;90.07;99416.75;7391426;19;20381;-63
2023/11/11 10:14:36;;;;;;;3.15;2.08;;;;;;;8.15;90.13;99415.09;7394066;19;20373;-63
2023/11/11 10:17:11;;;;;;;4.38;2.10;;;;;;;8.18;89.94;99413.91;7394578;19;20439;-63
2023/11/11 10:19:41;;;;;;;3.03;1.70;;;;;;;8.21;89.71;99428.56;7393915;19;21047;-63
2023/11/11 10:22:25;;;;;;;3.63;1.80;;;;;;;8.23;89.53;99421.28;7395911;19;20341;-64
2023/11/11 10:24:52;;;;;;;4.35;1.80;;;;;;;8.30;88.96;99427.41;7396348;19;20372;-63
2023/11/11 10:27:19;;;;;;;2.72;1.50;;;;;;;8.37;87.95;99415.06;7396515;19;20912;-64
2023/11/11 10:29:47;;;;;;;5.88;2.00;;;;;;;8.54;88.38;99411.19;7395649;19;20735;-64
2023/11/11 10:32:16;;;;;;;2.92;1.85;;;;;;;8.61;87.55;99413.84;7394295;19;20397;-64
2023/11/11 10:34:44;;;;;;;3.92;1.70;;;;;;;8.74;88.47;99411.28;7394401;19;20480;-64
2023/11/11 10:37:11;;;;;;;2.97;1.67;;;;;;;8.79;87.12;99416.00;7395255;19;20740;-64
2023/11/11 10:39:39;;;;;;;4.60;1.90;;;;;;;8.77;86.46;99421.47;7395483;19;20891;-64
2023/11/11 10:42:06;;;;;;;3.88;1.80;;;;;;;8.82;87.18;99414.78;7394268;19;20336;-64
2023/11/11 10:44:33;;;;;;;3.70;1.75;;;;;;;8.90;86.59;99412.78;7394255;19;21005;-64
2023/11/11 10:47:00;;;;;;;2.95;1.85;;;;;;;8.95;85.70;99420.97;7394521;19;20373;-64
2023/11/11 10:49:27;;;;;;;4.07;1.90;;;;;;;9.07;85.97;99407.19;7395345;19;20368;-64
2023/11/11 10:52:00;;;;;;;3.55;1.77;;;;;;;9.13;85.34;99406.41;7392671;19;20399;-64
2023/11/11 10:54:29;;;;;;;3.90;1.90;;;;;;;9.19;85.33;99402.97;7392875;19;20376;-64
2023/11/11 10:56:57;;;;;;;3.67;1.80;;;;;;;9.22;85.08;99415.78;7394425;19;20377;-64
2023/11/11 10:59:26;;;;;;;3.75;1.80;;;;;;;9.12;84.62;99415.34;7389233;19;20393;-64
2023/11/11 11:01:54;;;;;;;4.18;2.08;;;;;;;9.03;84.73;99416.53;7393524;19;20414;-64
2023/11/11 11:04:25;;;;;;;3.05;1.60;;;;;;;8.88;85.29;99424.56;7395146;19;20365;-64
2023/11/11 11:07:00;;;;;;;4.32;2.03;;;;;;;8.65;86.00;99436.25;7393287;19;20435;-64
2023/11/11 11:09:56;;;;;;;3.45;2.10;;;;;;;8.51;88.30;99435.34;7393104;19;20357;-64
2023/11/11 11:12:33;;;;;;;4.65;2.40;;;;;;;8.36;89.72;99438.03;7391131;19;20413;-64
2023/11/11 11:15:05;;;;;;;4.10;2.50;;;;;;;8.25;91.48;99441.22;7390222;19;20410;-64
2023/11/11 11:17:38;;;;;;;4.68;2.40;;;;;;;8.15;93.13;99436.22;7391286;19;20869;-64
2023/11/11 11:20:09;;;;;;;3.67;2.30;;;;;;;8.10;93.54;99441.28;7391322;19;20423;-64
2023/11/11 11:22:39;;;;;;;4.40;2.30;;;;;;;7.96;94.25;99436.88;7391988;19;20366;-64
2023/11/11 11:25:34;;;;;;;4.07;2.50;;;;;;;7.84;94.84;99443.66;7393852;19;20847;-64
2023/11/11 11:28:10;;;;;;;4.50;2.50;;;;;;;7.72;96.53;99433.59;7392577;19;20441;-64
2023/11/11 11:30:44;;;;;;;5.53;3.00;;;;;;;7.63;96.76;99439.16;7390392;19;20348;-64
2023/11/11 11:33:13;;;;;;;4.63;3.03;;;;;;;7.62;97.56;99438.38;7391064;19;20443;-64
2023/11/11 11:35:43;;;;;;;5.07;3.30;;;;;;;7.68;97.99;99445.53;7393327;19;20885;-64
2023/11/11 11:38:10;;;;;;;4.50;2.72;;;;;;;7.78;96.76;99436.47;7390196;19;20356;-65
2023/11/11 11:40:38;;;;;;;4.80;2.78;;;;;;;7.88;97.47;99437.81;7392467;19;20702;-64
2023/11/11 11:43:09;;;;;;;5.63;2.67;;;;;;;7.95;95.91;99456.38;7393268;19;20343;-64
2023/11/11 11:45:38;;;;;;;4.90;2.67;;;;;;;8.07;95.33;99441.66;7387400;19;20432;-65
2023/11/11 11:48:08;;;;;;;3.78;2.00;;;;;;;8.14;94.00;99455.75;7388789;19;20398;-64